createdAt,value
2018-10-19T00:01:24.549Z,101039
2018-10-19T00:03:54.131Z,101037
2018-10-19T00:06:22.971Z,101035
2018-10-19T00:08:51.811Z,101035
2018-10-19T00:11:20.662Z,101037
2018-10-19T00:13:49.503Z,101033
2018-10-19T00:16:19.085Z,101033
2018-10-19T00:18:47.914Z,101029
2018-10-19T00:21:16.758Z,101035
2018-10-19T00:23:45.588Z,101036
2018-10-19T00:26:15.185Z,101030
2018-10-19T00:28:44.791Z,101030
2018-10-19T00:31:14.376Z,101035
2018-10-19T00:33:43.223Z,101036
2018-10-19T00:36:12.042Z,101033
2018-10-19T00:38:40.881Z,101033
2018-10-19T00:41:10.556Z,101029
2018-10-19T00:43:39.311Z,101029
2018-10-19T00:46:08.148Z,101029
2018-10-19T00:48:37.749Z,101023
2018-10-19T00:51:06.617Z,101017
2018-10-19T00:53:35.432Z,101024
2018-10-19T00:56:05.026Z,101023
2018-10-19T00:58:33.883Z,101021
2018-10-19T01:01:02.714Z,101021
2018-10-19T01:03:32.298Z,101026
2018-10-19T01:06:01.126Z,101029
2018-10-19T01:08:30.706Z,101024
2018-10-19T01:10:59.558Z,101025
2018-10-19T01:13:28.394Z,101016
2018-10-19T01:15:57.237Z,101024
2018-10-19T01:18:26.077Z,101019
2018-10-19T01:20:55.668Z,101011
2018-10-19T01:23:24.492Z,101015
2018-10-19T01:25:53.329Z,101012
2018-10-19T01:28:22.164Z,101014
2018-10-19T01:30:51.747Z,101008
2018-10-19T01:33:20.580Z,101012
2018-10-19T01:35:49.418Z,101002
2018-10-19T01:38:18.984Z,101013
2018-10-19T01:40:47.821Z,101005
2018-10-19T01:43:16.674Z,101014
2018-10-19T01:45:45.508Z,101003
2018-10-19T01:48:15.082Z,101003
2018-10-19T01:50:43.925Z,101003
2018-10-19T01:53:12.814Z,101008
2018-10-19T01:55:41.593Z,101003
2018-10-19T01:58:10.439Z,101005
2018-10-19T02:00:39.273Z,101007
2018-10-19T02:03:08.119Z,101006
2018-10-19T02:05:36.937Z,101009
2018-10-19T02:08:06.518Z,101008
2018-10-19T02:10:35.371Z,101015
2018-10-19T02:13:04.218Z,101011
2018-10-19T02:15:33.074Z,101014
2018-10-19T02:18:01.926Z,101014
2018-10-19T02:20:30.774Z,101015
2018-10-19T02:22:59.615Z,101013
2018-10-19T02:25:28.458Z,101009
2018-10-19T02:27:57.304Z,101006
2018-10-19T02:30:26.143Z,101005
2018-10-19T02:32:55.781Z,100999
2018-10-19T02:35:24.613Z,101005
2018-10-19T02:37:53.450Z,101010
2018-10-19T02:40:22.287Z,101015
2018-10-19T02:42:51.123Z,101018
2018-10-19T02:45:19.969Z,101007
2018-10-19T02:47:48.804Z,101003
2018-10-19T02:50:17.672Z,101009
2018-10-19T02:52:47.259Z,101004
2018-10-19T02:55:16.084Z,101013
2018-10-19T02:57:45.663Z,101007
2018-10-19T03:00:15.096Z,101007
2018-10-19T03:02:44.682Z,101005
2018-10-19T03:05:13.645Z,101012
2018-10-19T03:07:42.376Z,101013
2018-10-19T03:10:11.223Z,101010
2018-10-19T03:12:40.056Z,101017
2018-10-19T03:15:09.737Z,101017
2018-10-19T03:17:38.479Z,101025
2018-10-19T03:20:07.355Z,101022
2018-10-19T03:22:36.163Z,101022
2018-10-19T03:25:05.009Z,101020
2018-10-19T03:27:34.591Z,101023
2018-10-19T03:30:03.435Z,101018
2018-10-19T03:32:32.273Z,101021
2018-10-19T03:35:01.152Z,101020
2018-10-19T03:37:29.946Z,101031
2018-10-19T03:39:58.785Z,101028
2018-10-19T03:42:27.623Z,101029
2018-10-19T03:44:57.246Z,101027
2018-10-19T03:47:26.055Z,101030
2018-10-19T03:49:55.643Z,101027
2018-10-19T03:52:24.469Z,101034
2018-10-19T03:54:53.337Z,101034
2018-10-19T03:57:22.915Z,101030
2018-10-19T03:59:51.753Z,101025
2018-10-19T04:02:20.594Z,101031
2018-10-19T04:04:49.444Z,101038
2018-10-19T04:07:18.312Z,101038
2018-10-19T04:09:47.149Z,101033
2018-10-19T04:12:15.989Z,101050
2018-10-19T04:14:44.834Z,101036
2018-10-19T04:17:14.476Z,101036
2018-10-19T04:19:43.252Z,101041
2018-10-19T04:22:12.105Z,101041
2018-10-19T04:24:40.933Z,101040
2018-10-19T04:27:10.550Z,101042
2018-10-19T04:29:40.104Z,101041
2018-10-19T04:32:08.932Z,101035
2018-10-19T04:34:37.779Z,101037
2018-10-19T04:37:06.602Z,101046
2018-10-19T04:39:35.451Z,101044
2018-10-19T04:42:04.482Z,101037
2018-10-19T04:44:33.138Z,101043
2018-10-19T04:47:02.063Z,101046
2018-10-19T04:49:30.823Z,101036
2018-10-19T04:51:59.676Z,101037
2018-10-19T04:54:28.522Z,101044
2018-10-19T04:56:57.398Z,101038
2018-10-19T04:59:26.209Z,101050
2018-10-19T05:01:55.050Z,101051
2018-10-19T05:04:23.898Z,101048
2018-10-19T05:06:52.737Z,101044
2018-10-19T05:09:21.575Z,101053
2018-10-19T05:11:50.417Z,101054
2018-10-19T05:14:19.288Z,101054
2018-10-19T05:16:48.093Z,101054
2018-10-19T05:19:16.920Z,101055
2018-10-19T05:21:45.755Z,101055
2018-10-19T05:24:14.665Z,101057
2018-10-19T05:26:43.453Z,101054
2018-10-19T05:29:12.377Z,101061
2018-10-19T05:31:41.123Z,101062
2018-10-19T05:34:09.965Z,101065
2018-10-19T05:36:39.384Z,101066
2018-10-19T05:39:08.214Z,101064
2018-10-19T05:41:37.052Z,101064
2018-10-19T05:44:05.920Z,101068
2018-10-19T05:46:34.730Z,101080
2018-10-19T05:49:03.583Z,101078
2018-10-19T05:51:32.425Z,101072
2018-10-19T05:54:01.285Z,101081
2018-10-19T05:56:30.867Z,101080
2018-10-19T05:58:59.739Z,101085
2018-10-19T06:01:28.579Z,101091
2018-10-19T06:03:57.419Z,101102
2018-10-19T06:06:26.260Z,101095
2018-10-19T06:08:55.098Z,101102
2018-10-19T06:11:23.934Z,101109
2018-10-19T06:13:53.590Z,101104
2018-10-19T06:16:22.410Z,101110
2018-10-19T06:18:52.885Z,101102
2018-10-19T06:21:21.742Z,101099
2018-10-19T06:23:51.328Z,101103
2018-10-19T06:26:20.235Z,101104
2018-10-19T06:28:49.024Z,101110
2018-10-19T06:31:18.628Z,101101
2018-10-19T06:33:47.498Z,101112
2018-10-19T06:36:16.328Z,101108
2018-10-19T06:38:45.160Z,101120
2018-10-19T06:41:14.811Z,101112
2018-10-19T06:43:44.658Z,101109
2018-10-19T06:46:13.413Z,101124
2018-10-19T06:48:42.298Z,101116
2018-10-19T06:51:11.133Z,101109
2018-10-19T06:53:40.077Z,101114
2018-10-19T06:56:09.711Z,101112
2018-10-19T06:58:38.500Z,101110
2018-10-19T07:01:07.344Z,101117
2018-10-19T07:03:36.188Z,101122
2018-10-19T07:06:05.056Z,101121
2018-10-19T07:08:34.631Z,101129
2018-10-19T07:11:03.559Z,101126
2018-10-19T07:13:32.331Z,101124
2018-10-19T07:16:01.974Z,101128
2018-10-19T07:18:30.778Z,101126
2018-10-19T07:20:59.644Z,101129
2018-10-19T07:23:28.495Z,101120
2018-10-19T07:25:58.078Z,101129
2018-10-19T07:28:26.918Z,101127
2018-10-19T07:30:55.782Z,101127
2018-10-19T07:33:24.637Z,101138
2018-10-19T07:35:53.493Z,101141
2018-10-19T07:38:22.350Z,101134
2018-10-19T07:40:51.206Z,101130
2018-10-19T07:43:20.046Z,101133
2018-10-19T07:45:48.892Z,101141
2018-10-19T07:48:17.801Z,101147
2018-10-19T07:50:46.596Z,101146
2018-10-19T07:53:16.199Z,101149
2018-10-19T07:55:45.056Z,101151
2018-10-19T07:58:13.904Z,101156
2018-10-19T08:00:42.798Z,101148
2018-10-19T08:03:11.622Z,101158
2018-10-19T08:05:40.453Z,101151
2018-10-19T08:08:10.125Z,101154
2018-10-19T08:10:39.672Z,101154
2018-10-19T08:13:08.512Z,101157
2018-10-19T08:15:37.359Z,101157
2018-10-19T08:18:06.227Z,101164
2018-10-19T08:20:35.077Z,101157
2018-10-19T08:23:03.931Z,101168
2018-10-19T08:25:32.795Z,101158
2018-10-19T08:28:02.394Z,101161
2018-10-19T08:30:31.543Z,101151
2018-10-19T08:33:00.282Z,101158
2018-10-19T08:35:29.128Z,101161
2018-10-19T08:37:57.974Z,101165
2018-10-19T08:40:26.804Z,101167
2018-10-19T08:42:55.651Z,101165
2018-10-19T08:45:24.487Z,101159
2018-10-19T08:47:53.330Z,101160
2018-10-19T08:50:22.925Z,101164
2018-10-19T08:52:51.785Z,101165
2018-10-19T08:55:20.634Z,101160
2018-10-19T08:57:49.524Z,101163
2018-10-19T09:00:18.371Z,101154
2018-10-19T09:02:47.161Z,101169
2018-10-19T09:05:16.077Z,101167
2018-10-19T09:07:44.872Z,101167
2018-10-19T09:10:13.730Z,101172
2018-10-19T09:12:42.694Z,101172
2018-10-19T09:15:11.720Z,101174
2018-10-19T09:17:40.550Z,101179
2018-10-19T09:20:09.390Z,101180
2018-10-19T09:22:38.237Z,101176
2018-10-19T09:25:07.099Z,101175
2018-10-19T09:27:36.670Z,101169
2018-10-19T09:30:06.272Z,101173
2018-10-19T09:32:35.123Z,101164
2018-10-19T09:35:04.053Z,101164
2018-10-19T09:37:32.834Z,101165
2018-10-19T09:40:01.725Z,101168
2018-10-19T09:42:30.525Z,101166
2018-10-19T09:44:59.371Z,101162
2018-10-19T09:47:28.233Z,101158
2018-10-19T09:49:57.076Z,101159
2018-10-19T09:52:25.924Z,101162
2018-10-19T09:54:54.802Z,101170
2018-10-19T09:57:24.368Z,101172
2018-10-19T09:59:53.229Z,101168
2018-10-19T10:02:22.079Z,101174
2018-10-19T10:04:51.659Z,101172
2018-10-19T10:07:21.248Z,101174
2018-10-19T10:09:50.103Z,101169
2018-10-19T10:12:18.940Z,101170
2018-10-19T10:14:47.815Z,101172
2018-10-19T10:17:16.622Z,101169
2018-10-19T10:19:45.474Z,101165
2018-10-19T10:22:14.389Z,101156
2018-10-19T10:24:43.205Z,101162
2018-10-19T10:27:12.021Z,101162
2018-10-19T10:29:40.918Z,101156
2018-10-19T10:32:09.768Z,101145
2018-10-19T10:34:38.615Z,101150
2018-10-19T10:37:07.495Z,101154
2018-10-19T10:39:37.091Z,101152
2018-10-19T10:42:05.942Z,101152
2018-10-19T10:44:34.777Z,101144
2018-10-19T10:47:03.669Z,101144
2018-10-19T10:49:33.261Z,101153
2018-10-19T10:52:02.110Z,101146
2018-10-19T10:54:30.934Z,101143
2018-10-19T10:56:59.768Z,101153
2018-10-19T10:59:28.615Z,101141
2018-10-19T11:01:57.474Z,101145
2018-10-19T11:04:26.319Z,101129
2018-10-19T11:06:55.202Z,101133
2018-10-19T11:09:24.740Z,101129
2018-10-19T11:11:53.605Z,101123
2018-10-19T11:14:22.485Z,101120
2018-10-19T11:16:51.279Z,101129
2018-10-19T11:19:20.170Z,101118
2018-10-19T11:21:49.002Z,101112
2018-10-19T11:24:18.441Z,101109
2018-10-19T11:26:47.304Z,101119
2018-10-19T11:29:16.909Z,101117
2018-10-19T11:31:45.755Z,101109
2018-10-19T11:34:14.628Z,101114
2018-10-19T11:36:44.198Z,101111
2018-10-19T11:39:13.792Z,101115
2018-10-19T11:41:42.645Z,101115
2018-10-19T11:44:11.504Z,101107
2018-10-19T11:46:40.385Z,101107
2018-10-19T11:49:10.059Z,101103
2018-10-19T11:51:39.575Z,101107
2018-10-19T11:54:08.446Z,101094
2018-10-19T11:56:37.300Z,101100
2018-10-19T11:59:06.152Z,101085
2018-10-19T12:01:35.005Z,101090
2018-10-19T12:04:03.909Z,101095
2018-10-19T12:06:32.685Z,101089
2018-10-19T12:09:01.532Z,101087
2018-10-19T12:11:30.368Z,101077
2018-10-19T12:13:59.204Z,101083
2018-10-19T12:16:28.789Z,101074
2018-10-19T12:18:57.662Z,101072
2018-10-19T12:21:26.520Z,101073
2018-10-19T12:23:55.331Z,101068
2018-10-19T12:26:24.187Z,101049
2018-10-19T12:28:53.052Z,101060
2018-10-19T12:31:21.936Z,101057
2018-10-19T12:33:50.781Z,101063
2018-10-19T12:36:19.635Z,101053
2018-10-19T12:38:48.480Z,101057
2018-10-19T12:41:17.427Z,101051
2018-10-19T12:43:46.179Z,101048
2018-10-19T12:49:09.446Z,101054
2018-10-19T12:51:38.266Z,101045
2018-10-19T12:54:07.871Z,101052
2018-10-19T12:56:36.700Z,101051
2018-10-19T12:59:05.545Z,101038
2018-10-19T13:01:34.412Z,101042
2018-10-19T13:04:03.264Z,101041
2018-10-19T13:06:32.100Z,101035
2018-10-19T13:09:00.999Z,101038
2018-10-19T13:11:29.799Z,101037
2018-10-19T13:13:58.644Z,101032
2018-10-19T13:16:27.489Z,101035
2018-10-19T13:18:56.368Z,101028
2018-10-19T13:21:25.185Z,101033
2018-10-19T13:23:54.086Z,101030
2018-10-19T13:26:22.899Z,101028
2018-10-19T13:28:52.482Z,101030
2018-10-19T13:31:21.333Z,101036
2018-10-19T13:33:50.179Z,101028
2018-10-19T13:36:19.013Z,101032
2018-10-19T13:38:47.855Z,101030
2018-10-19T13:41:16.702Z,101035
2018-10-19T13:43:45.551Z,101028
2018-10-19T13:46:15.141Z,101029
2018-10-19T13:48:43.998Z,101028
2018-10-19T13:51:12.914Z,101028
2018-10-19T13:53:41.708Z,101027
2018-10-19T13:56:10.563Z,101034
2018-10-19T13:58:40.467Z,101027
2018-10-19T14:01:09.359Z,101031
2018-10-19T14:03:38.200Z,101024
2018-10-19T14:06:07.057Z,101025
2018-10-19T14:08:35.905Z,101030
2018-10-19T14:11:04.813Z,101027
2018-10-19T14:13:34.170Z,101034
2018-10-19T14:16:03.796Z,101034
2018-10-19T14:18:32.660Z,101026
2018-10-19T14:21:01.527Z,101030
2018-10-19T14:23:30.346Z,101014
2018-10-19T14:26:00.053Z,101015
2018-10-19T14:30:08.221Z,100997
2018-10-19T14:32:37.065Z,101012
2018-10-19T14:35:06.694Z,101011
2018-10-19T14:37:35.676Z,101006
2018-10-19T14:40:04.603Z,101008
2018-10-19T14:42:33.360Z,101002
2018-10-19T14:45:02.276Z,101008
2018-10-19T14:47:31.086Z,101009
2018-10-19T14:49:59.926Z,101011
2018-10-19T14:52:29.501Z,101013
2018-10-19T14:54:58.370Z,101013
2018-10-19T14:57:27.229Z,101010
2018-10-19T14:59:56.076Z,101019
2018-10-19T15:02:25.673Z,101019
2018-10-19T15:04:54.565Z,101023
2018-10-19T15:07:23.376Z,101020
2018-10-19T15:09:53.110Z,101023
2018-10-19T15:12:21.844Z,101017
2018-10-19T15:14:50.654Z,101018
2018-10-19T15:17:19.503Z,101020
2018-10-19T15:19:48.380Z,101018
2018-10-19T15:22:17.215Z,101013
2018-10-19T15:24:46.058Z,101015
2018-10-19T15:27:15.003Z,101019
2018-10-19T15:29:43.793Z,101019
2018-10-19T15:32:12.636Z,101019
2018-10-19T15:34:41.516Z,101018
2018-10-19T15:37:10.382Z,101017
2018-10-19T15:39:39.958Z,101020
2018-10-19T15:42:08.896Z,101017
2018-10-19T15:44:37.657Z,101016
2018-10-19T15:47:07.240Z,101020
2018-10-19T15:49:36.088Z,101010
2018-10-19T15:52:04.922Z,101003
2018-10-19T15:54:33.785Z,101006
2018-10-19T15:57:02.679Z,101012
2018-10-19T15:59:31.490Z,101010
2018-10-19T16:02:00.353Z,101016
2018-10-19T16:04:29.194Z,101019
2018-10-19T16:06:58.051Z,101019
2018-10-19T16:09:26.888Z,101027
2018-10-19T16:11:55.780Z,101019
2018-10-19T16:14:25.329Z,101021
2018-10-19T16:16:54.273Z,101018
2018-10-19T16:19:23.122Z,101019
2018-10-19T16:21:51.981Z,101017
2018-10-19T16:24:20.819Z,101020
2018-10-19T16:26:50.407Z,101026
2018-10-19T16:29:19.255Z,101028
2018-10-19T16:31:48.108Z,101025
2018-10-19T16:34:17.697Z,101024
2018-10-19T16:36:47.286Z,101025
2018-10-19T16:39:16.835Z,101029
2018-10-19T16:41:45.600Z,101024
2018-10-19T16:44:14.454Z,101035
2018-10-19T16:46:43.305Z,101039
2018-10-19T16:49:12.178Z,101036
2018-10-19T16:51:41.028Z,101045
2018-10-19T16:54:10.729Z,101046
2018-10-19T16:56:39.501Z,101039
2018-10-19T16:59:08.358Z,101045
2018-10-19T17:01:37.944Z,101049
2018-10-19T17:04:06.819Z,101042
2018-10-19T17:06:35.636Z,101050
2018-10-19T17:09:05.248Z,101049
2018-10-19T17:11:34.106Z,101052
2018-10-19T17:14:02.950Z,101067
2018-10-19T17:16:31.817Z,101056
2018-10-19T17:19:01.411Z,101061
2018-10-19T17:21:30.242Z,101064
2018-10-19T17:23:59.176Z,101072
2018-10-19T17:26:28.693Z,101074
2018-10-19T17:28:57.598Z,101077
2018-10-19T17:31:26.443Z,101085
2018-10-19T17:33:55.271Z,101093
2018-10-19T17:36:24.855Z,101092
2018-10-19T17:38:53.765Z,101100
2018-10-19T17:41:22.594Z,101105
2018-10-19T17:43:51.430Z,101106
2018-10-19T17:46:20.278Z,101119
2018-10-19T17:48:49.121Z,101109
2018-10-19T17:51:17.967Z,101114
2018-10-19T17:53:46.849Z,101114
2018-10-19T17:56:15.666Z,101121
2018-10-19T17:58:44.522Z,101125
2018-10-19T18:01:13.397Z,101121
2018-10-19T18:03:42.232Z,101127
2018-10-19T18:06:11.144Z,101129
2018-10-19T18:08:39.949Z,101132
2018-10-19T18:11:09.565Z,101130
2018-10-19T18:13:39.131Z,101135
2018-10-19T18:16:08.058Z,101136
2018-10-19T18:18:36.841Z,101135
2018-10-19T18:21:05.760Z,101142
2018-10-19T18:23:35.349Z,101148
2018-10-19T18:26:04.258Z,101148
2018-10-19T18:28:33.033Z,101154
2018-10-19T18:31:01.922Z,101156
2018-10-19T18:33:30.726Z,101156
2018-10-19T18:35:59.575Z,101160
2018-10-19T18:38:29.157Z,101160
2018-10-19T18:40:58.097Z,101159
2018-10-19T18:43:26.876Z,101156
2018-10-19T18:45:55.811Z,101157
2018-10-19T18:48:24.627Z,101166
2018-10-19T18:50:53.507Z,101160
2018-10-19T18:53:22.356Z,101156
2018-10-19T18:55:51.198Z,101156
2018-10-19T18:58:20.052Z,101164
2018-10-19T19:00:48.894Z,101157
2018-10-19T19:03:17.732Z,101160
2018-10-19T19:05:46.573Z,101160
2018-10-19T19:08:15.514Z,101168
2018-10-19T19:10:44.297Z,101173
2018-10-19T19:13:13.145Z,101178
2018-10-19T19:15:42.015Z,101176
2018-10-19T19:18:10.868Z,101182
2018-10-19T19:20:39.708Z,101186
2018-10-19T19:23:08.595Z,101190
2018-10-19T19:25:43.208Z,101188
2018-10-19T19:28:12.796Z,101189
2018-10-19T19:30:42.381Z,101184
2018-10-19T19:33:11.225Z,101182
2018-10-19T19:35:40.076Z,101189
2018-10-19T19:38:08.936Z,101195
2018-10-19T19:40:37.759Z,101203
2018-10-19T19:43:06.608Z,101207
2018-10-19T19:45:35.456Z,101210
2018-10-19T19:48:04.312Z,101217
2018-10-19T19:50:33.173Z,101231
2018-10-19T19:53:02.030Z,101227
2018-10-19T19:55:31.639Z,101224
2018-10-19T19:58:00.488Z,101234
2018-10-19T20:00:29.326Z,101234
2018-10-19T20:02:58.155Z,101243
2018-10-19T20:05:26.994Z,101245
2018-10-19T20:07:55.867Z,101241
2018-10-19T20:10:24.706Z,101254
2018-10-19T20:12:53.573Z,101248
2018-10-19T20:15:22.408Z,101253
2018-10-19T20:17:51.244Z,101258
2018-10-19T20:20:20.120Z,101265
2018-10-19T20:22:49.708Z,101265
2018-10-19T20:25:18.573Z,101262
2018-10-19T20:27:47.413Z,101263
2018-10-19T20:30:17.021Z,101264
2018-10-19T20:32:46.628Z,101262
2018-10-19T20:35:16.285Z,101267
2018-10-19T20:37:45.074Z,101268
2018-10-19T20:40:13.914Z,101265
2018-10-19T20:42:43.507Z,101265
2018-10-19T20:45:13.116Z,101272
2018-10-19T20:47:42.726Z,101276
2018-10-19T20:50:12.355Z,101269
2018-10-19T20:52:41.200Z,101276
2018-10-19T20:55:10.049Z,101272
2018-10-19T20:57:38.896Z,101278
2018-10-19T21:00:08.482Z,101273
2018-10-19T21:02:37.388Z,101273
2018-10-19T21:05:06.228Z,101267
2018-10-19T21:07:35.144Z,101273
2018-10-19T21:10:03.906Z,101263
2018-10-19T21:12:32.742Z,101272
2018-10-19T21:15:02.397Z,101266
2018-10-19T21:17:31.247Z,101261
2018-10-19T21:20:00.871Z,101267
2018-10-19T21:22:30.269Z,101265
2018-10-19T21:24:59.870Z,101268
2018-10-19T21:27:28.715Z,101283
2018-10-19T21:29:57.600Z,101283
2018-10-19T21:32:26.409Z,101288
2018-10-19T21:34:55.293Z,101290
2018-10-19T21:37:24.115Z,101288
2018-10-19T21:39:52.964Z,101277
2018-10-19T21:42:21.820Z,101277
2018-10-19T21:44:50.677Z,101274
2018-10-19T21:47:19.529Z,101283
2018-10-19T21:49:48.386Z,101274
2018-10-19T21:52:17.255Z,101271
2018-10-19T21:54:46.846Z,101267
2018-10-19T21:57:15.679Z,101275
2018-10-19T21:59:44.536Z,101263
2018-10-19T22:02:13.454Z,101269
2018-10-19T22:04:42.210Z,101267
2018-10-19T22:07:11.838Z,101268
2018-10-19T22:09:40.668Z,101268
2018-10-19T22:12:09.502Z,101270
2018-10-19T22:14:39.105Z,101269
2018-10-19T22:17:08.040Z,101285
2018-10-19T22:19:36.832Z,101274
2018-10-19T22:22:05.674Z,101276
2018-10-19T22:24:35.258Z,101275
2018-10-19T22:27:04.114Z,101276
2018-10-19T22:29:32.963Z,101269
2018-10-19T22:32:01.820Z,101274
2018-10-19T22:34:30.672Z,101271
2018-10-19T22:36:59.538Z,101271
2018-10-19T22:39:28.377Z,101277
2018-10-19T22:41:57.236Z,101280
2018-10-19T22:44:26.096Z,101282
2018-10-19T22:46:55.738Z,101287
2018-10-19T22:49:25.304Z,101280
2018-10-19T22:51:54.165Z,101274
2018-10-19T22:54:23.036Z,101274
2018-10-19T22:56:51.872Z,101274
2018-10-19T22:59:20.727Z,101269
2018-10-19T23:01:49.579Z,101270
2018-10-19T23:04:18.426Z,101277
2018-10-19T23:06:47.268Z,101294
2018-10-19T23:09:16.106Z,101280
2018-10-19T23:11:44.953Z,101280
2018-10-19T23:14:13.804Z,101275
2018-10-19T23:16:42.636Z,101285
2018-10-19T23:19:11.702Z,101286
2018-10-19T23:21:40.372Z,101288
2018-10-19T23:24:09.174Z,101285
2018-10-19T23:26:38.021Z,101297
2018-10-19T23:29:07.480Z,101284
2018-10-19T23:31:37.140Z,101291
2018-10-19T23:34:05.866Z,101297
2018-10-19T23:36:34.708Z,101290
2018-10-19T23:39:03.555Z,101329
2018-10-19T23:41:32.396Z,101290
2018-10-19T23:44:01.239Z,101294
2018-10-19T23:46:30.084Z,101293
2018-10-19T23:48:58.918Z,101302
2018-10-19T23:51:27.748Z,101299
2018-10-19T23:53:56.591Z,101302
2018-10-19T23:56:25.422Z,101302
2018-10-19T23:58:54.261Z,101305
